This is the latest recevied weather packets stored in our database for station/object W4TJP. If no packets are shown the sender has not sent any weather packets the latest 10 day(s).
| Time | Temp. | Humidity | Pressure | Rain* | Wind** | Luminosity | Snow |
|---|---|---|---|---|---|---|---|
| 1777832818 | 16.67° C | 44% | 1019.5 hPa | 0 mm | - | 704 W/m² | - |
| 1777832516 | 16.67° C | 44% | 1019.5 hPa | 0 mm | - | 710 W/m² | - |
| 1777832212 | 16.67° C | 45% | 1019.5 hPa | 0 mm | - | 725 W/m² | - |
| 1777831909 | 17.22° C | 45% | 1019.4 hPa | 0 mm | - | 719 W/m² | - |
| 1777831606 | 16.67° C | 47% | 1019.7 hPa | 0 mm | - | 704 W/m² | - |
| 1777831304 | 17.22° C | 47% | 1019.5 hPa | 0 mm | - | 697 W/m² | - |
| 1777831001 | 17.22° C | 46% | 1019.8 hPa | 0 mm | - | 598 W/m² | - |
| 1777830698 | 16.67° C | 46% | 1019.9 hPa | 0 mm | - | 576 W/m² | - |
| 1777830394 | 16.67° C | 46% | 1019.8 hPa | 0 mm | - | 665 W/m² | - |
| 1777830092 | 16.67° C | 47% | 1020.1 hPa | 0 mm | - | 706 W/m² | - |
| 1777829787 | 16.11° C | 48% | 1019.8 hPa | 0 mm | - | 695 W/m² | - |
| 1777829483 | 16.11° C | 46% | 1019.9 hPa | 0 mm | - | 708 W/m² | - |
| 1777829180 | 15° C | 54% | 1019.9 hPa | 0 mm | - | 711 W/m² | - |
| 1777828878 | 15.56° C | 45% | 1019.8 hPa | 0 mm | - | 684 W/m² | - |
| 1777828574 | 15.56° C | 51% | 1020 hPa | 0 mm | - | 673 W/m² | - |
| 1777828272 | 15° C | 53% | 1020.2 hPa | 0 mm | - | 696 W/m² | - |
| 1777827969 | 15° C | 50% | 1020.4 hPa | 0 mm | - | 676 W/m² | - |
| 1777827665 | 15° C | 54% | 1020.4 hPa | 0 mm | - | 691 W/m² | - |
| 1777827362 | 14.44° C | 59% | 1020.4 hPa | 0 mm | - | 710 W/m² | - |
| 1777827058 | 15° C | 54% | 1020.2 hPa | 0 mm | - | 696 W/m² | - |
| 1777826755 | 14.44° C | 56% | 1020.3 hPa | 0 mm | - | 694 W/m² | - |
| 1777826452 | 13.89° C | 55% | 1020.5 hPa | 0 mm | - | 705 W/m² | - |
| 1777826149 | 13.89° C | 63% | 1020.4 hPa | 0 mm | - | 719 W/m² | - |
| 1777825846 | 13.89° C | 57% | 1020.4 hPa | 0 mm | - | 699 W/m² | - |
| 1777825543 | 12.78° C | 59% | 1020.8 hPa | 0 mm | - | 723 W/m² | - |
* Rain latest hour (hover to see other rain measurements)
** Current wind speed in m/s (hover to see current wind gust speed)